sensor_id;sensor_type;location;lat;lon;timestamp;temperature;humidity
52495;DHT22;38405;53.212;5.660;2023-04-03T00:01:13;2.00;99.90
52495;DHT22;38405;53.212;5.660;2023-04-03T00:03:39;2.00;99.90
52495;DHT22;38405;53.212;5.660;2023-04-03T00:06:05;2.00;99.90
52495;DHT22;38405;53.212;5.660;2023-04-03T00:08:35;1.90;99.90
52495;DHT22;38405;53.212;5.660;2023-04-03T00:11:01;2.00;99.90
52495;DHT22;38405;53.212;5.660;2023-04-03T00:13:27;1.90;99.90
52495;DHT22;38405;53.212;5.660;2023-04-03T00:15:53;2.20;99.90
52495;DHT22;38405;53.212;5.660;2023-04-03T00:18:18;1.80;99.90
52495;DHT22;38405;53.212;5.660;2023-04-03T00:20:44;1.70;99.90
52495;DHT22;38405;53.212;5.660;2023-04-03T00:23:10;1.70;99.90
52495;DHT22;38405;53.212;5.660;2023-04-03T00:25:36;1.70;99.90
52495;DHT22;38405;53.212;5.660;2023-04-03T00:28:02;1.60;99.90
52495;DHT22;38405;53.212;5.660;2023-04-03T00:30:28;1.50;99.90
52495;DHT22;38405;53.212;5.660;2023-04-03T00:32:54;1.50;99.90
52495;DHT22;38405;53.212;5.660;2023-04-03T00:35:21;2.30;99.90
52495;DHT22;38405;53.212;5.660;2023-04-03T00:37:48;1.40;99.90
52495;DHT22;38405;53.212;5.660;2023-04-03T00:40:15;1.30;99.90
52495;DHT22;38405;53.212;5.660;2023-04-03T00:42:43;1.30;99.90
52495;DHT22;38405;53.212;5.660;2023-04-03T00:47:44;1.20;99.90
52495;DHT22;38405;53.212;5.660;2023-04-03T00:50:09;1.20;99.90
52495;DHT22;38405;53.212;5.660;2023-04-03T00:52:37;1.20;99.90
52495;DHT22;38405;53.212;5.660;2023-04-03T00:55:06;1.20;99.90
52495;DHT22;38405;53.212;5.660;2023-04-03T00:57:32;1.20;99.90
52495;DHT22;38405;53.212;5.660;2023-04-03T01:00:03;1.10;99.90
52495;DHT22;38405;53.212;5.660;2023-04-03T01:02:30;1.10;99.90
52495;DHT22;38405;53.212;5.660;2023-04-03T01:04:55;1.10;99.90
52495;DHT22;38405;53.212;5.660;2023-04-03T01:07:24;1.10;99.90
52495;DHT22;38405;53.212;5.660;2023-04-03T01:09:56;1.10;99.90
52495;DHT22;38405;53.212;5.660;2023-04-03T01:15:00;1.10;99.90
52495;DHT22;38405;53.212;5.660;2023-04-03T01:17:41;1.10;99.90
52495;DHT22;38405;53.212;5.660;2023-04-03T01:25:48;1.00;99.90
52495;DHT22;38405;53.212;5.660;2023-04-03T01:28:34;1.00;99.90
52495;DHT22;38405;53.212;5.660;2023-04-03T01:33:51;1.00;99.90
52495;DHT22;38405;53.212;5.660;2023-04-03T01:36:23;0.90;99.90
52495;DHT22;38405;53.212;5.660;2023-04-03T01:38:50;1.00;99.90
52495;DHT22;38405;53.212;5.660;2023-04-03T01:41:19;0.90;99.90
52495;DHT22;38405;53.212;5.660;2023-04-03T01:43:46;0.90;99.90
52495;DHT22;38405;53.212;5.660;2023-04-03T01:46:15;0.90;99.90
52495;DHT22;38405;53.212;5.660;2023-04-03T01:48:41;1.00;99.90
52495;DHT22;38405;53.212;5.660;2023-04-03T01:51:07;0.90;99.90
52495;DHT22;38405;53.212;5.660;2023-04-03T01:53:35;0.90;99.90
52495;DHT22;38405;53.212;5.660;2023-04-03T01:56:01;0.90;99.90
52495;DHT22;38405;53.212;5.660;2023-04-03T01:58:27;0.90;99.90
52495;DHT22;38405;53.212;5.660;2023-04-03T02:00:53;0.80;99.90
52495;DHT22;38405;53.212;5.660;2023-04-03T02:03:19;0.80;99.90
52495;DHT22;38405;53.212;5.660;2023-04-03T02:05:45;0.80;99.90
52495;DHT22;38405;53.212;5.660;2023-04-03T02:08:11;0.70;99.90
52495;DHT22;38405;53.212;5.660;2023-04-03T02:10:36;0.70;99.90
52495;DHT22;38405;53.212;5.660;2023-04-03T02:13:03;0.70;99.90
52495;DHT22;38405;53.212;5.660;2023-04-03T02:15:28;0.70;99.90
52495;DHT22;38405;53.212;5.660;2023-04-03T02:17:54;0.60;99.90
52495;DHT22;38405;53.212;5.660;2023-04-03T02:20:20;0.60;99.90
52495;DHT22;38405;53.212;5.660;2023-04-03T02:22:46;0.60;99.90
52495;DHT22;38405;53.212;5.660;2023-04-03T02:25:12;0.60;99.90
52495;DHT22;38405;53.212;5.660;2023-04-03T02:27:38;0.50;99.90
52495;DHT22;38405;53.212;5.660;2023-04-03T02:30:04;0.50;99.90
52495;DHT22;38405;53.212;5.660;2023-04-03T02:32:31;0.50;99.90
52495;DHT22;38405;53.212;5.660;2023-04-03T02:34:57;0.40;99.90
52495;DHT22;38405;53.212;5.660;2023-04-03T02:37:22;0.40;99.90
52495;DHT22;38405;53.212;5.660;2023-04-03T02:39:48;0.30;99.90
52495;DHT22;38405;53.212;5.660;2023-04-03T02:42:13;0.30;99.90
52495;DHT22;38405;53.212;5.660;2023-04-03T02:44:39;0.30;99.90
52495;DHT22;38405;53.212;5.660;2023-04-03T02:47:05;0.30;99.90
52495;DHT22;38405;53.212;5.660;2023-04-03T02:49:31;0.30;99.90
52495;DHT22;38405;53.212;5.660;2023-04-03T02:51:57;0.30;99.90
52495;DHT22;38405;53.212;5.660;2023-04-03T02:54:23;0.30;99.90
52495;DHT22;38405;53.212;5.660;2023-04-03T02:56:50;0.30;99.90
52495;DHT22;38405;53.212;5.660;2023-04-03T02:59:16;0.30;99.90
52495;DHT22;38405;53.212;5.660;2023-04-03T03:01:42;0.20;99.90
52495;DHT22;38405;53.212;5.660;2023-04-03T03:04:10;0.20;99.90
52495;DHT22;38405;53.212;5.660;2023-04-03T03:06:36;0.20;99.90
52495;DHT22;38405;53.212;5.660;2023-04-03T03:09:02;0.20;99.90
52495;DHT22;38405;53.212;5.660;2023-04-03T03:11:29;0.10;99.90
52495;DHT22;38405;53.212;5.660;2023-04-03T03:13:54;0.10;99.90
52495;DHT22;38405;53.212;5.660;2023-04-03T03:16:20;0.10;99.90
52495;DHT22;38405;53.212;5.660;2023-04-03T03:18:46;0.10;99.90
52495;DHT22;38405;53.212;5.660;2023-04-03T03:21:11;0.10;99.90
52495;DHT22;38405;53.212;5.660;2023-04-03T03:23:37;0.10;99.90
52495;DHT22;38405;53.212;5.660;2023-04-03T03:26:05;0.10;99.90
52495;DHT22;38405;53.212;5.660;2023-04-03T03:28:31;0.10;99.90
52495;DHT22;38405;53.212;5.660;2023-04-03T03:30:58;0.00;99.90
52495;DHT22;38405;53.212;5.660;2023-04-03T03:33:24;0.00;99.90
52495;DHT22;38405;53.212;5.660;2023-04-03T03:35:51;0.00;99.90
52495;DHT22;38405;53.212;5.660;2023-04-03T03:38:17;0.00;99.90
52495;DHT22;38405;53.212;5.660;2023-04-03T03:40:42;0.00;99.90
52495;DHT22;38405;53.212;5.660;2023-04-03T03:43:11;0.00;99.90
52495;DHT22;38405;53.212;5.660;2023-04-03T03:45:37;0.00;99.90
52495;DHT22;38405;53.212;5.660;2023-04-03T03:48:02;0.00;99.90
52495;DHT22;38405;53.212;5.660;2023-04-03T03:50:28;-0.10;99.90
52495;DHT22;38405;53.212;5.660;2023-04-03T03:52:54;-0.10;99.90
52495;DHT22;38405;53.212;5.660;2023-04-03T03:55:19;-0.10;99.90
52495;DHT22;38405;53.212;5.660;2023-04-03T03:57:45;-0.10;99.90
52495;DHT22;38405;53.212;5.660;2023-04-03T04:00:11;0.30;99.90
52495;DHT22;38405;53.212;5.660;2023-04-03T04:02:38;-0.20;99.90
52495;DHT22;38405;53.212;5.660;2023-04-03T04:05:04;-0.20;99.90
52495;DHT22;38405;53.212;5.660;2023-04-03T04:07:30;-0.20;99.90
52495;DHT22;38405;53.212;5.660;2023-04-03T04:09:56;-0.20;99.90
52495;DHT22;38405;53.212;5.660;2023-04-03T04:12:21;-0.20;99.90
52495;DHT22;38405;53.212;5.660;2023-04-03T04:14:47;-0.20;99.90
52495;DHT22;38405;53.212;5.660;2023-04-03T04:17:14;-0.20;99.90
52495;DHT22;38405;53.212;5.660;2023-04-03T04:19:40;-0.20;99.90
52495;DHT22;38405;53.212;5.660;2023-04-03T04:22:06;-0.30;99.90
52495;DHT22;38405;53.212;5.660;2023-04-03T04:24:32;-0.30;99.90
52495;DHT22;38405;53.212;5.660;2023-04-03T04:27:00;-0.30;99.90
52495;DHT22;38405;53.212;5.660;2023-04-03T04:29:26;-0.30;99.90
52495;DHT22;38405;53.212;5.660;2023-04-03T04:31:51;-0.30;99.90
52495;DHT22;38405;53.212;5.660;2023-04-03T04:34:17;-0.40;99.90
52495;DHT22;38405;53.212;5.660;2023-04-03T04:36:42;-0.40;99.90
52495;DHT22;38405;53.212;5.660;2023-04-03T04:39:08;-0.40;99.90
52495;DHT22;38405;53.212;5.660;2023-04-03T04:41:34;-0.40;99.90
52495;DHT22;38405;53.212;5.660;2023-04-03T04:44:00;-0.40;99.90
52495;DHT22;38405;53.212;5.660;2023-04-03T04:46:26;-0.50;99.90
52495;DHT22;38405;53.212;5.660;2023-04-03T04:48:52;-0.50;99.90
52495;DHT22;38405;53.212;5.660;2023-04-03T04:51:17;-0.50;99.90
52495;DHT22;38405;53.212;5.660;2023-04-03T04:53:43;-0.50;99.90
52495;DHT22;38405;53.212;5.660;2023-04-03T04:56:09;-0.50;99.90
52495;DHT22;38405;53.212;5.660;2023-04-03T04:58:35;-0.50;99.90
52495;DHT22;38405;53.212;5.660;2023-04-03T05:01:05;-0.50;99.90
52495;DHT22;38405;53.212;5.660;2023-04-03T05:03:31;0.60;99.90
52495;DHT22;38405;53.212;5.660;2023-04-03T05:05:57;-0.50;99.90
52495;DHT22;38405;53.212;5.660;2023-04-03T05:08:23;-0.50;99.90
52495;DHT22;38405;53.212;5.660;2023-04-03T05:10:49;-0.50;99.90
52495;DHT22;38405;53.212;5.660;2023-04-03T05:13:15;-0.50;99.90
52495;DHT22;38405;53.212;5.660;2023-04-03T05:15:40;-0.50;99.90
52495;DHT22;38405;53.212;5.660;2023-04-03T05:18:06;-0.50;99.90
52495;DHT22;38405;53.212;5.660;2023-04-03T05:20:33;-0.40;99.90
52495;DHT22;38405;53.212;5.660;2023-04-03T05:22:58;-0.40;99.90
52495;DHT22;38405;53.212;5.660;2023-04-03T05:25:24;-0.40;99.90
52495;DHT22;38405;53.212;5.660;2023-04-03T05:27:50;-0.40;99.90
52495;DHT22;38405;53.212;5.660;2023-04-03T05:30:16;-0.40;99.90
52495;DHT22;38405;53.212;5.660;2023-04-03T05:32:42;-0.40;99.90
52495;DHT22;38405;53.212;5.660;2023-04-03T05:35:08;-0.40;99.90
52495;DHT22;38405;53.212;5.660;2023-04-03T05:37:34;-0.40;99.90
52495;DHT22;38405;53.212;5.660;2023-04-03T05:40:00;-0.40;99.90
52495;DHT22;38405;53.212;5.660;2023-04-03T05:42:26;-0.40;99.90
52495;DHT22;38405;53.212;5.660;2023-04-03T05:44:51;-0.40;99.90
52495;DHT22;38405;53.212;5.660;2023-04-03T05:47:18;-0.30;99.90
52495;DHT22;38405;53.212;5.660;2023-04-03T05:49:44;-0.40;99.90
52495;DHT22;38405;53.212;5.660;2023-04-03T05:54:51;-0.40;99.90
52495;DHT22;38405;53.212;5.660;2023-04-03T05:57:17;0.60;99.90
52495;DHT22;38405;53.212;5.660;2023-04-03T05:59:44;-0.30;99.90
52495;DHT22;38405;53.212;5.660;2023-04-03T06:02:15;-0.30;99.90
52495;DHT22;38405;53.212;5.660;2023-04-03T06:04:41;0.10;99.90
52495;DHT22;38405;53.212;5.660;2023-04-03T06:07:13;-0.20;99.90
52495;DHT22;38405;53.212;5.660;2023-04-03T06:09:41;-0.10;99.90
52495;DHT22;38405;53.212;5.660;2023-04-03T06:12:07;0.00;99.90
52495;DHT22;38405;53.212;5.660;2023-04-03T06:14:32;0.10;99.90
52495;DHT22;38405;53.212;5.660;2023-04-03T06:16:58;0.40;99.90
52495;DHT22;38405;53.212;5.660;2023-04-03T06:19:24;0.70;99.90
52495;DHT22;38405;53.212;5.660;2023-04-03T06:21:51;1.00;99.90
52495;DHT22;38405;53.212;5.660;2023-04-03T06:24:17;1.10;99.90
52495;DHT22;38405;53.212;5.660;2023-04-03T06:26:43;1.30;99.90
52495;DHT22;38405;53.212;5.660;2023-04-03T06:29:09;1.50;99.90
52495;DHT22;38405;53.212;5.660;2023-04-03T06:31:35;1.50;99.90
52495;DHT22;38405;53.212;5.660;2023-04-03T06:34:02;1.70;99.90
52495;DHT22;38405;53.212;5.660;2023-04-03T06:36:28;1.40;99.90
52495;DHT22;38405;53.212;5.660;2023-04-03T06:38:54;1.30;99.90
52495;DHT22;38405;53.212;5.660;2023-04-03T06:41:20;1.50;99.90
52495;DHT22;38405;53.212;5.660;2023-04-03T06:43:47;1.20;99.90
52495;DHT22;38405;53.212;5.660;2023-04-03T06:46:17;1.20;99.90
52495;DHT22;38405;53.212;5.660;2023-04-03T06:48:43;1.20;99.90
52495;DHT22;38405;53.212;5.660;2023-04-03T06:51:19;1.20;99.90
52495;DHT22;38405;53.212;5.660;2023-04-03T06:53:46;1.30;99.90
52495;DHT22;38405;53.212;5.660;2023-04-03T06:56:12;1.30;99.90
52495;DHT22;38405;53.212;5.660;2023-04-03T06:58:38;1.60;99.90
52495;DHT22;38405;53.212;5.660;2023-04-03T07:01:04;1.40;99.90
52495;DHT22;38405;53.212;5.660;2023-04-03T07:03:29;1.50;99.90
52495;DHT22;38405;53.212;5.660;2023-04-03T07:05:55;1.60;99.90
52495;DHT22;38405;53.212;5.660;2023-04-03T07:08:21;2.60;99.90
52495;DHT22;38405;53.212;5.660;2023-04-03T07:10:48;4.30;99.90
52495;DHT22;38405;53.212;5.660;2023-04-03T07:13:15;6.00;99.90
52495;DHT22;38405;53.212;5.660;2023-04-03T07:15:41;7.40;99.90
52495;DHT22;38405;53.212;5.660;2023-04-03T07:18:06;8.20;99.90
52495;DHT22;38405;53.212;5.660;2023-04-03T07:20:32;8.90;99.90
52495;DHT22;38405;53.212;5.660;2023-04-03T07:22:58;9.40;99.90
52495;DHT22;38405;53.212;5.660;2023-04-03T07:25:23;9.80;99.90
52495;DHT22;38405;53.212;5.660;2023-04-03T07:27:52;10.20;99.90
52495;DHT22;38405;53.212;5.660;2023-04-03T07:30:20;10.70;99.90
52495;DHT22;38405;53.212;5.660;2023-04-03T07:32:46;10.80;99.90
52495;DHT22;38405;53.212;5.660;2023-04-03T07:35:12;11.00;99.90
52495;DHT22;38405;53.212;5.660;2023-04-03T07:37:37;11.50;99.90
52495;DHT22;38405;53.212;5.660;2023-04-03T07:40:04;11.80;99.90
52495;DHT22;38405;53.212;5.660;2023-04-03T07:42:30;12.30;99.90
52495;DHT22;38405;53.212;5.660;2023-04-03T07:44:55;12.70;99.90
52495;DHT22;38405;53.212;5.660;2023-04-03T07:47:22;12.90;99.90
52495;DHT22;38405;53.212;5.660;2023-04-03T07:49:48;13.30;99.90
52495;DHT22;38405;53.212;5.660;2023-04-03T07:52:13;13.60;99.90
52495;DHT22;38405;53.212;5.660;2023-04-03T07:54:41;13.60;99.90
52495;DHT22;38405;53.212;5.660;2023-04-03T07:57:07;13.90;99.90
52495;DHT22;38405;53.212;5.660;2023-04-03T07:59:33;14.00;99.90
52495;DHT22;38405;53.212;5.660;2023-04-03T08:01:58;14.30;99.90
52495;DHT22;38405;53.212;5.660;2023-04-03T08:04:24;14.60;99.90
52495;DHT22;38405;53.212;5.660;2023-04-03T08:06:51;15.40;99.90
52495;DHT22;38405;53.212;5.660;2023-04-03T08:09:18;15.90;99.50
52495;DHT22;38405;53.212;5.660;2023-04-03T08:11:45;15.90;97.60
52495;DHT22;38405;53.212;5.660;2023-04-03T08:14:11;15.90;97.60
52495;DHT22;38405;53.212;5.660;2023-04-03T08:17:03;15.70;97.10
52495;DHT22;38405;53.212;5.660;2023-04-03T08:19:29;15.30;94.20
52495;DHT22;38405;53.212;5.660;2023-04-03T08:21:55;15.00;96.00
52495;DHT22;38405;53.212;5.660;2023-04-03T08:24:22;15.20;96.30
52495;DHT22;38405;53.212;5.660;2023-04-03T08:26:48;15.50;96.10
52495;DHT22;38405;53.212;5.660;2023-04-03T08:29:13;15.80;95.80
52495;DHT22;38405;53.212;5.660;2023-04-03T08:31:39;15.80;94.90
52495;DHT22;38405;53.212;5.660;2023-04-03T08:34:08;15.80;94.60
52495;DHT22;38405;53.212;5.660;2023-04-03T08:36:34;15.80;93.70
52495;DHT22;38405;53.212;5.660;2023-04-03T08:39:00;15.90;93.00
52495;DHT22;38405;53.212;5.660;2023-04-03T08:41:37;15.70;91.70
52495;DHT22;38405;53.212;5.660;2023-04-03T08:52:32;15.80;90.30
52495;DHT22;38405;53.212;5.660;2023-04-03T08:55:27;15.70;91.20
52495;DHT22;38405;53.212;5.660;2023-04-03T08:58:03;14.90;81.00
52495;DHT22;38405;53.212;5.660;2023-04-03T09:00:46;14.40;80.80
52495;DHT22;38405;53.212;5.660;2023-04-03T09:03:20;14.80;90.00
52495;DHT22;38405;53.212;5.660;2023-04-03T09:06:03;15.20;89.50
52495;DHT22;38405;53.212;5.660;2023-04-03T09:08:49;15.00;83.80
52495;DHT22;38405;53.212;5.660;2023-04-03T09:11:25;14.50;86.70
52495;DHT22;38405;53.212;5.660;2023-04-03T09:14:17;13.70;82.60
52495;DHT22;38405;53.212;5.660;2023-04-03T09:17:03;13.10;80.00
52495;DHT22;38405;53.212;5.660;2023-04-03T09:19:45;12.60;84.10
52495;DHT22;38405;53.212;5.660;2023-04-03T09:22:27;12.40;88.00
52495;DHT22;38405;53.212;5.660;2023-04-03T09:27:41;11.60;85.60
52495;DHT22;38405;53.212;5.660;2023-04-03T09:30:16;11.50;91.70
52495;DHT22;38405;53.212;5.660;2023-04-03T09:32:45;11.30;89.30
52495;DHT22;38405;53.212;5.660;2023-04-03T09:35:30;11.20;91.00
52495;DHT22;38405;53.212;5.660;2023-04-03T09:43:34;11.20;89.70
52495;DHT22;38405;53.212;5.660;2023-04-03T09:46:24;11.20;88.00
52495;DHT22;38405;53.212;5.660;2023-04-03T09:48:52;11.30;81.80
52495;DHT22;38405;53.212;5.660;2023-04-03T09:51:25;11.30;90.40
52495;DHT22;38405;53.212;5.660;2023-04-03T09:53:51;11.30;89.90
52495;DHT22;38405;53.212;5.660;2023-04-03T09:58:45;11.10;87.90
52495;DHT22;38405;53.212;5.660;2023-04-03T10:01:27;11.20;85.20
52495;DHT22;38405;53.212;5.660;2023-04-03T10:06:56;11.10;82.00
52495;DHT22;38405;53.212;5.660;2023-04-03T10:09:30;11.20;84.20
52495;DHT22;38405;53.212;5.660;2023-04-03T10:14:28;11.30;85.40
52495;DHT22;38405;53.212;5.660;2023-04-03T10:19:57;11.50;81.70
52495;DHT22;38405;53.212;5.660;2023-04-03T10:28:08;11.60;85.00
52495;DHT22;38405;53.212;5.660;2023-04-03T10:30:57;11.60;78.90
52495;DHT22;38405;53.212;5.660;2023-04-03T10:33:53;11.60;77.30
52495;DHT22;38405;53.212;5.660;2023-04-03T10:39:23;11.60;82.80
52495;DHT22;38405;53.212;5.660;2023-04-03T10:42:10;11.50;79.10
52495;DHT22;38405;53.212;5.660;2023-04-03T10:44:56;11.60;79.50
52495;DHT22;38405;53.212;5.660;2023-04-03T10:53:17;11.60;78.20
52495;DHT22;38405;53.212;5.660;2023-04-03T10:55:57;11.60;80.10
52495;DHT22;38405;53.212;5.660;2023-04-03T11:01:02;11.50;78.30
52495;DHT22;38405;53.212;5.660;2023-04-03T11:03:35;11.50;78.20
52495;DHT22;38405;53.212;5.660;2023-04-03T11:06:07;11.40;77.80
52495;DHT22;38405;53.212;5.660;2023-04-03T11:09:00;11.20;80.20
52495;DHT22;38405;53.212;5.660;2023-04-03T11:11:37;11.30;76.60
52495;DHT22;38405;53.212;5.660;2023-04-03T11:17:03;11.00;78.50
52495;DHT22;38405;53.212;5.660;2023-04-03T11:19:47;11.00;78.50
52495;DHT22;38405;53.212;5.660;2023-04-03T11:27:46;10.70;75.90
52495;DHT22;38405;53.212;5.660;2023-04-03T11:33:12;10.90;76.20
52495;DHT22;38405;53.212;5.660;2023-04-03T11:35:49;10.90;77.70
52495;DHT22;38405;53.212;5.660;2023-04-03T11:38:37;10.90;77.30
52495;DHT22;38405;53.212;5.660;2023-04-03T11:41:08;11.10;74.70
52495;DHT22;38405;53.212;5.660;2023-04-03T11:43:40;11.20;76.80
52495;DHT22;38405;53.212;5.660;2023-04-03T11:46:08;11.20;77.40
52495;DHT22;38405;53.212;5.660;2023-04-03T11:48:43;11.20;78.20
52495;DHT22;38405;53.212;5.660;2023-04-03T11:53:39;11.30;78.90
52495;DHT22;38405;53.212;5.660;2023-04-03T12:01:53;11.40;75.20
52495;DHT22;38405;53.212;5.660;2023-04-03T12:04:21;11.40;74.90
52495;DHT22;38405;53.212;5.660;2023-04-03T12:09:34;11.30;77.20
52495;DHT22;38405;53.212;5.660;2023-04-03T12:12:21;11.20;74.70
52495;DHT22;38405;53.212;5.660;2023-04-03T12:14:47;11.10;78.70
52495;DHT22;38405;53.212;5.660;2023-04-03T12:17:25;11.10;77.70
52495;DHT22;38405;53.212;5.660;2023-04-03T12:19:52;11.00;78.10
52495;DHT22;38405;53.212;5.660;2023-04-03T12:22:20;11.20;79.50
52495;DHT22;38405;53.212;5.660;2023-04-03T12:24:51;11.10;77.20
52495;DHT22;38405;53.212;5.660;2023-04-03T12:35:18;10.80;76.80
52495;DHT22;38405;53.212;5.660;2023-04-03T12:41:10;10.90;77.60
52495;DHT22;38405;53.212;5.660;2023-04-03T12:44:15;10.80;77.30
52495;DHT22;38405;53.212;5.660;2023-04-03T12:46:50;10.80;76.70
52495;DHT22;38405;53.212;5.660;2023-04-03T12:49:33;10.80;77.30
52495;DHT22;38405;53.212;5.660;2023-04-03T12:52:04;10.60;75.40
52495;DHT22;38405;53.212;5.660;2023-04-03T12:54:38;10.70;79.00
52495;DHT22;38405;53.212;5.660;2023-04-03T12:57:20;10.70;76.70
52495;DHT22;38405;53.212;5.660;2023-04-03T12:59:46;10.60;78.60
52495;DHT22;38405;53.212;5.660;2023-04-03T13:02:26;10.50;78.40
52495;DHT22;38405;53.212;5.660;2023-04-03T13:04:55;10.50;76.90
52495;DHT22;38405;53.212;5.660;2023-04-03T13:07:26;10.60;79.60
52495;DHT22;38405;53.212;5.660;2023-04-03T13:10:17;10.60;79.10
52495;DHT22;38405;53.212;5.660;2023-04-03T13:12:57;10.50;77.60
52495;DHT22;38405;53.212;5.660;2023-04-03T13:15:30;10.60;79.10
52495;DHT22;38405;53.212;5.660;2023-04-03T13:18:04;10.60;79.50
52495;DHT22;38405;53.212;5.660;2023-04-03T13:20:34;10.60;79.50
52495;DHT22;38405;53.212;5.660;2023-04-03T13:23:07;10.50;77.40
52495;DHT22;38405;53.212;5.660;2023-04-03T13:25:37;10.50;79.80
52495;DHT22;38405;53.212;5.660;2023-04-03T13:28:06;10.40;78.60
52495;DHT22;38405;53.212;5.660;2023-04-03T13:30:35;10.40;80.00
52495;DHT22;38405;53.212;5.660;2023-04-03T13:33:04;10.50;80.50
52495;DHT22;38405;53.212;5.660;2023-04-03T13:35:41;10.40;79.50
52495;DHT22;38405;53.212;5.660;2023-04-03T13:38:28;10.40;77.40
52495;DHT22;38405;53.212;5.660;2023-04-03T13:41:03;10.30;78.20
52495;DHT22;38405;53.212;5.660;2023-04-03T13:43:33;10.20;79.90
52495;DHT22;38405;53.212;5.660;2023-04-03T13:46:22;10.30;78.90
52495;DHT22;38405;53.212;5.660;2023-04-03T13:48:47;10.30;80.60
52495;DHT22;38405;53.212;5.660;2023-04-03T13:53:58;10.00;78.60
52495;DHT22;38405;53.212;5.660;2023-04-03T14:04:21;10.20;80.90
52495;DHT22;38405;53.212;5.660;2023-04-03T14:06:48;10.20;80.30
52495;DHT22;38405;53.212;5.660;2023-04-03T14:09:19;10.10;79.80
52495;DHT22;38405;53.212;5.660;2023-04-03T14:11:47;10.10;80.50
52495;DHT22;38405;53.212;5.660;2023-04-03T14:14:34;10.10;80.50
52495;DHT22;38405;53.212;5.660;2023-04-03T14:17:03;10.10;79.30
52495;DHT22;38405;53.212;5.660;2023-04-03T14:19:35;10.10;81.10
52495;DHT22;38405;53.212;5.660;2023-04-03T14:22:29;10.20;81.20
52495;DHT22;38405;53.212;5.660;2023-04-03T14:24:53;10.20;80.30
52495;DHT22;38405;53.212;5.660;2023-04-03T14:27:24;10.20;81.00
52495;DHT22;38405;53.212;5.660;2023-04-03T14:29:52;10.20;80.80
52495;DHT22;38405;53.212;5.660;2023-04-03T14:32:19;10.20;80.60
52495;DHT22;38405;53.212;5.660;2023-04-03T14:34:46;10.10;80.80
52495;DHT22;38405;53.212;5.660;2023-04-03T14:37:18;10.00;81.10
52495;DHT22;38405;53.212;5.660;2023-04-03T14:39:45;10.00;81.10
52495;DHT22;38405;53.212;5.660;2023-04-03T14:42:20;10.00;82.80
52495;DHT22;38405;53.212;5.660;2023-04-03T14:44:46;10.00;81.30
52495;DHT22;38405;53.212;5.660;2023-04-03T14:47:14;10.00;82.70
52495;DHT22;38405;53.212;5.660;2023-04-03T14:49:41;10.20;82.60
52495;DHT22;38405;53.212;5.660;2023-04-03T14:52:20;10.20;81.90
52495;DHT22;38405;53.212;5.660;2023-04-03T14:54:47;10.10;82.20
52495;DHT22;38405;53.212;5.660;2023-04-03T14:57:14;10.00;82.70
52495;DHT22;38405;53.212;5.660;2023-04-03T14:59:40;10.00;82.10
52495;DHT22;38405;53.212;5.660;2023-04-03T15:02:26;10.10;83.00
52495;DHT22;38405;53.212;5.660;2023-04-03T15:04:53;10.10;79.70
52495;DHT22;38405;53.212;5.660;2023-04-03T15:07:19;10.00;81.50
52495;DHT22;38405;53.212;5.660;2023-04-03T15:09:44;10.10;82.20
52495;DHT22;38405;53.212;5.660;2023-04-03T15:12:10;9.80;79.50
52495;DHT22;38405;53.212;5.660;2023-04-03T15:14:36;9.80;81.20
52495;DHT22;38405;53.212;5.660;2023-04-03T15:17:03;9.90;82.50
52495;DHT22;38405;53.212;5.660;2023-04-03T15:19:36;9.90;83.10
52495;DHT22;38405;53.212;5.660;2023-04-03T15:22:02;9.80;84.60
52495;DHT22;38405;53.212;5.660;2023-04-03T15:24:27;9.60;87.00
52495;DHT22;38405;53.212;5.660;2023-04-03T15:26:53;9.50;90.00
52495;DHT22;38405;53.212;5.660;2023-04-03T15:29:19;9.40;90.20
52495;DHT22;38405;53.212;5.660;2023-04-03T15:31:45;9.30;90.40
52495;DHT22;38405;53.212;5.660;2023-04-03T15:34:10;9.10;90.80
52495;DHT22;38405;53.212;5.660;2023-04-03T15:36:36;9.10;91.80
52495;DHT22;38405;53.212;5.660;2023-04-03T15:39:02;9.00;92.20
52495;DHT22;38405;53.212;5.660;2023-04-03T15:41:28;8.90;92.30
52495;DHT22;38405;53.212;5.660;2023-04-03T15:43:53;8.90;92.60
52495;DHT22;38405;53.212;5.660;2023-04-03T15:46:19;8.80;92.70
52495;DHT22;38405;53.212;5.660;2023-04-03T15:48:45;8.80;93.20
52495;DHT22;38405;53.212;5.660;2023-04-03T15:51:10;8.80;93.40
52495;DHT22;38405;53.212;5.660;2023-04-03T15:53:36;8.80;93.90
52495;DHT22;38405;53.212;5.660;2023-04-03T15:56:02;8.80;93.90
52495;DHT22;38405;53.212;5.660;2023-04-03T15:58:27;8.80;93.70
52495;DHT22;38405;53.212;5.660;2023-04-03T16:00:53;8.80;94.20
52495;DHT22;38405;53.212;5.660;2023-04-03T16:03:20;8.70;93.90
52495;DHT22;38405;53.212;5.660;2023-04-03T16:05:46;8.70;94.00
52495;DHT22;38405;53.212;5.660;2023-04-03T16:08:13;8.60;94.00
52495;DHT22;38405;53.212;5.660;2023-04-03T16:10:43;8.50;94.60
52495;DHT22;38405;53.212;5.660;2023-04-03T16:13:11;8.70;94.50
52495;DHT22;38405;53.212;5.660;2023-04-03T16:15:40;8.50;94.10
52495;DHT22;38405;53.212;5.660;2023-04-03T16:18:07;8.50;94.10
52495;DHT22;38405;53.212;5.660;2023-04-03T16:20:34;8.40;93.70
52495;DHT22;38405;53.212;5.660;2023-04-03T16:23:00;8.40;93.70
52495;DHT22;38405;53.212;5.660;2023-04-03T16:25:26;8.40;93.40
52495;DHT22;38405;53.212;5.660;2023-04-03T16:27:54;8.30;93.60
52495;DHT22;38405;53.212;5.660;2023-04-03T16:30:20;8.30;93.70
52495;DHT22;38405;53.212;5.660;2023-04-03T16:32:46;8.30;94.00
52495;DHT22;38405;53.212;5.660;2023-04-03T16:35:11;8.30;93.60
52495;DHT22;38405;53.212;5.660;2023-04-03T16:37:38;8.20;93.70
52495;DHT22;38405;53.212;5.660;2023-04-03T16:40:06;8.10;93.30
52495;DHT22;38405;53.212;5.660;2023-04-03T16:42:32;8.00;93.60
52495;DHT22;38405;53.212;5.660;2023-04-03T16:44:58;8.00;93.70
52495;DHT22;38405;53.212;5.660;2023-04-03T16:47:25;7.90;93.60
52495;DHT22;38405;53.212;5.660;2023-04-03T16:49:51;7.80;93.80
52495;DHT22;38405;53.212;5.660;2023-04-03T16:52:16;7.80;93.90
52495;DHT22;38405;53.212;5.660;2023-04-03T16:54:42;7.70;94.40
52495;DHT22;38405;53.212;5.660;2023-04-03T16:57:08;7.60;94.20
52495;DHT22;38405;53.212;5.660;2023-04-03T16:59:33;7.50;94.40
52495;DHT22;38405;53.212;5.660;2023-04-03T17:01:59;7.50;94.80
52495;DHT22;38405;53.212;5.660;2023-04-03T17:04:24;7.50;94.90
52495;DHT22;38405;53.212;5.660;2023-04-03T17:06:51;7.30;95.10
52495;DHT22;38405;53.212;5.660;2023-04-03T17:09:17;7.30;95.50
52495;DHT22;38405;53.212;5.660;2023-04-03T17:11:43;7.20;96.00
52495;DHT22;38405;53.212;5.660;2023-04-03T17:14:09;7.20;96.10
52495;DHT22;38405;53.212;5.660;2023-04-03T17:16:37;7.10;96.20
52495;DHT22;38405;53.212;5.660;2023-04-03T17:19:06;7.00;96.40
52495;DHT22;38405;53.212;5.660;2023-04-03T17:21:33;7.00;96.60
52495;DHT22;38405;53.212;5.660;2023-04-03T17:24:02;6.90;96.90
52495;DHT22;38405;53.212;5.660;2023-04-03T17:26:28;6.80;96.90
52495;DHT22;38405;53.212;5.660;2023-04-03T17:28:54;6.70;96.90
52495;DHT22;38405;53.212;5.660;2023-04-03T17:31:21;6.70;97.10
52495;DHT22;38405;53.212;5.660;2023-04-03T17:33:47;6.70;97.10